Antimony, Utah
Current Conditions -  °F | °C
As of 7:53 PM on Wednesday 22 Oct 2014 (Local Time) from KBCE Reporting Station
Clear Clear  
Wind Chill: 10°   Ceiling: Unl
Heat Index: 10°   Visibility: 10mi
Dew Point: -6°   Wind: 10mph
Humidity: 33%   Direction: 300°WNW
Pressure: 30.28"   Gusts: NA
Location:  38.12°N, 112°W
Report Text: KBCE 230153Z AUTO 30009KT 10SM CLR 10/M06 A3028 RMK AO2 SLP195 T01001056 TSNO
Loading
Personal Weather Stations






























Interactive Weather Map
Tropical Storm Tracking
New forecast layout! Learn more

10-Day Weather Forecast

Advertisements
Track Severe Weather on mobile